Alcester, South Dakota
Current Conditions -  °F | °C
As of 3:15 PM on Saturday 22 Nov 2014 (Local Time) from KLRJ Reporting Station
Clear Clear  
Wind Chill:   Ceiling: Unl
Heat Index:   Visibility: 10mi
Dew Point:   Wind: 17mph
Humidity: 87%   Direction: 180°S
Pressure: 29.6"   Gusts: NA
Location:  43.02°N, 96.63°W
Report Text: KLRJ 222115Z AUTO 18015KT 10SM CLR 06/04 A2960 RMK AO2
Loading
Personal Weather Stations






























Interactive Weather Map New forecast layout! Learn more

10-Day Weather Forecast

Advertisements
Track Severe Weather on mobile